sensor_id;sensor_type;location;lat;lon;timestamp;P1;durP1;ratioP1;P2;durP2;ratioP2
65552;SDS011;52465;51.560;14.368;2023-05-07T00:01:59;6.40;;;5.90;;
65552;SDS011;52465;51.560;14.368;2023-05-07T00:04:25;6.82;;;6.22;;
65552;SDS011;52465;51.560;14.368;2023-05-07T00:06:50;6.75;;;6.22;;
65552;SDS011;52465;51.560;14.368;2023-05-07T00:09:16;6.40;;;5.90;;
65552;SDS011;52465;51.560;14.368;2023-05-07T00:11:42;6.13;;;5.60;;
65552;SDS011;52465;51.560;14.368;2023-05-07T00:14:07;6.30;;;5.80;;
65552;SDS011;52465;51.560;14.368;2023-05-07T00:16:32;6.28;;;5.75;;
65552;SDS011;52465;51.560;14.368;2023-05-07T00:18:57;6.22;;;5.72;;
65552;SDS011;52465;51.560;14.368;2023-05-07T00:21:23;6.70;;;6.18;;
65552;SDS011;52465;51.560;14.368;2023-05-07T00:23:51;6.10;;;5.60;;
65552;SDS011;52465;51.560;14.368;2023-05-07T00:26:18;5.95;;;5.55;;
65552;SDS011;52465;51.560;14.368;2023-05-07T00:28:43;6.50;;;6.00;;
65552;SDS011;52465;51.560;14.368;2023-05-07T00:31:28;6.40;;;5.88;;
65552;SDS011;52465;51.560;14.368;2023-05-07T00:33:53;6.70;;;6.13;;
65552;SDS011;52465;51.560;14.368;2023-05-07T00:36:19;7.15;;;6.55;;
65552;SDS011;52465;51.560;14.368;2023-05-07T00:38:44;6.60;;;6.10;;
65552;SDS011;52465;51.560;14.368;2023-05-07T00:41:10;6.13;;;5.70;;
65552;SDS011;52465;51.560;14.368;2023-05-07T00:43:36;6.13;;;5.68;;
65552;SDS011;52465;51.560;14.368;2023-05-07T00:46:01;6.55;;;5.95;;
65552;SDS011;52465;51.560;14.368;2023-05-07T00:48:27;6.55;;;5.95;;
65552;SDS011;52465;51.560;14.368;2023-05-07T00:50:52;7.00;;;6.40;;
65552;SDS011;52465;51.560;14.368;2023-05-07T00:53:18;6.47;;;6.03;;
65552;SDS011;52465;51.560;14.368;2023-05-07T00:55:44;6.32;;;5.80;;
65552;SDS011;52465;51.560;14.368;2023-05-07T00:58:10;6.22;;;5.65;;
65552;SDS011;52465;51.560;14.368;2023-05-07T01:00:35;6.40;;;5.95;;
65552;SDS011;52465;51.560;14.368;2023-05-07T01:04:17;6.70;;;6.20;;
65552;SDS011;52465;51.560;14.368;2023-05-07T01:06:43;6.40;;;5.90;;
65552;SDS011;52465;51.560;14.368;2023-05-07T01:09:10;6.50;;;6.00;;
65552;SDS011;52465;51.560;14.368;2023-05-07T01:11:36;7.03;;;6.38;;
65552;SDS011;52465;51.560;14.368;2023-05-07T01:14:03;6.57;;;6.05;;
65552;SDS011;52465;51.560;14.368;2023-05-07T01:16:30;7.13;;;6.53;;
65552;SDS011;52465;51.560;14.368;2023-05-07T01:18:56;6.75;;;6.25;;
65552;SDS011;52465;51.560;14.368;2023-05-07T01:21:24;6.65;;;6.07;;
65552;SDS011;52465;51.560;14.368;2023-05-07T01:23:51;5.90;;;5.50;;
65552;SDS011;52465;51.560;14.368;2023-05-07T01:26:18;6.20;;;5.80;;
65552;SDS011;52465;51.560;14.368;2023-05-07T01:28:45;6.50;;;5.97;;
65552;SDS011;52465;51.560;14.368;2023-05-07T01:31:11;6.60;;;6.10;;
65552;SDS011;52465;51.560;14.368;2023-05-07T01:33:38;5.97;;;5.57;;
65552;SDS011;52465;51.560;14.368;2023-05-07T01:36:08;6.70;;;6.15;;
65552;SDS011;52465;51.560;14.368;2023-05-07T01:41:23;6.13;;;5.70;;
65552;SDS011;52465;51.560;14.368;2023-05-07T01:43:52;6.60;;;6.10;;
65552;SDS011;52465;51.560;14.368;2023-05-07T01:46:18;6.20;;;5.70;;
65552;SDS011;52465;51.560;14.368;2023-05-07T01:48:45;6.35;;;5.80;;
65552;SDS011;52465;51.560;14.368;2023-05-07T01:51:11;6.18;;;5.78;;
65552;SDS011;52465;51.560;14.368;2023-05-07T01:53:39;6.53;;;5.93;;
65552;SDS011;52465;51.560;14.368;2023-05-07T01:56:05;6.38;;;5.88;;
65552;SDS011;52465;51.560;14.368;2023-05-07T01:58:31;6.03;;;5.63;;
65552;SDS011;52465;51.560;14.368;2023-05-07T02:00:56;6.40;;;5.90;;
65552;SDS011;52465;51.560;14.368;2023-05-07T02:03:23;6.80;;;6.30;;
65552;SDS011;52465;51.560;14.368;2023-05-07T02:05:51;6.68;;;6.15;;
65552;SDS011;52465;51.560;14.368;2023-05-07T02:08:16;6.20;;;5.70;;
65552;SDS011;52465;51.560;14.368;2023-05-07T02:10:42;6.20;;;5.70;;
65552;SDS011;52465;51.560;14.368;2023-05-07T02:13:07;6.28;;;5.88;;
65552;SDS011;52465;51.560;14.368;2023-05-07T02:15:36;6.15;;;5.72;;
65552;SDS011;52465;51.560;14.368;2023-05-07T02:18:05;6.10;;;5.70;;
65552;SDS011;52465;51.560;14.368;2023-05-07T02:20:32;5.85;;;5.40;;
65552;SDS011;52465;51.560;14.368;2023-05-07T02:22:58;6.20;;;5.70;;
65552;SDS011;52465;51.560;14.368;2023-05-07T02:25:23;6.00;;;5.60;;
65552;SDS011;52465;51.560;14.368;2023-05-07T02:27:54;6.25;;;5.75;;
65552;SDS011;52465;51.560;14.368;2023-05-07T02:30:19;5.68;;;5.28;;
65552;SDS011;52465;51.560;14.368;2023-05-07T02:32:46;5.70;;;5.30;;
65552;SDS011;52465;51.560;14.368;2023-05-07T02:35:11;6.07;;;5.60;;
65552;SDS011;52465;51.560;14.368;2023-05-07T02:37:37;6.30;;;5.90;;
65552;SDS011;52465;51.560;14.368;2023-05-07T02:40:02;6.10;;;5.70;;
65552;SDS011;52465;51.560;14.368;2023-05-07T02:42:31;5.75;;;5.35;;
65552;SDS011;52465;51.560;14.368;2023-05-07T02:44:58;6.55;;;6.00;;
65552;SDS011;52465;51.560;14.368;2023-05-07T02:47:24;6.30;;;5.80;;
65552;SDS011;52465;51.560;14.368;2023-05-07T02:49:52;5.90;;;5.50;;
65552;SDS011;52465;51.560;14.368;2023-05-07T02:52:18;6.57;;;5.97;;
65552;SDS011;52465;51.560;14.368;2023-05-07T02:54:43;5.97;;;5.57;;
65552;SDS011;52465;51.560;14.368;2023-05-07T02:57:08;6.60;;;6.10;;
65552;SDS011;52465;51.560;14.368;2023-05-07T02:59:34;6.20;;;5.80;;
65552;SDS011;52465;51.560;14.368;2023-05-07T03:01:59;6.32;;;5.85;;
65552;SDS011;52465;51.560;14.368;2023-05-07T03:04:24;6.68;;;6.05;;
65552;SDS011;52465;51.560;14.368;2023-05-07T03:06:50;6.30;;;5.78;;
65552;SDS011;52465;51.560;14.368;2023-05-07T03:09:15;7.07;;;6.03;;
65552;SDS011;52465;51.560;14.368;2023-05-07T03:11:41;6.38;;;5.88;;
65552;SDS011;52465;51.560;14.368;2023-05-07T03:14:07;5.97;;;5.40;;
65552;SDS011;52465;51.560;14.368;2023-05-07T03:16:32;6.30;;;5.80;;
65552;SDS011;52465;51.560;14.368;2023-05-07T03:19:02;5.70;;;5.30;;
65552;SDS011;52465;51.560;14.368;2023-05-07T03:21:27;5.97;;;5.57;;
65552;SDS011;52465;51.560;14.368;2023-05-07T03:23:53;6.00;;;5.60;;
65552;SDS011;52465;51.560;14.368;2023-05-07T03:26:18;6.47;;;5.85;;
65552;SDS011;52465;51.560;14.368;2023-05-07T03:28:43;6.25;;;5.85;;
65552;SDS011;52465;51.560;14.368;2023-05-07T03:31:09;5.85;;;5.45;;
65552;SDS011;52465;51.560;14.368;2023-05-07T03:33:34;6.82;;;6.20;;
65552;SDS011;52465;51.560;14.368;2023-05-07T03:36:00;7.05;;;6.45;;
65552;SDS011;52465;51.560;14.368;2023-05-07T03:38:26;7.20;;;6.50;;
65552;SDS011;52465;51.560;14.368;2023-05-07T03:40:51;7.18;;;6.57;;
65552;SDS011;52465;51.560;14.368;2023-05-07T03:43:17;7.13;;;6.63;;
65552;SDS011;52465;51.560;14.368;2023-05-07T03:45:42;7.00;;;6.40;;
65552;SDS011;52465;51.560;14.368;2023-05-07T03:48:09;7.47;;;6.88;;
65552;SDS011;52465;51.560;14.368;2023-05-07T03:50:34;6.88;;;6.38;;
65552;SDS011;52465;51.560;14.368;2023-05-07T03:53:00;7.13;;;6.45;;
65552;SDS011;52465;51.560;14.368;2023-05-07T03:55:25;7.65;;;6.95;;
65552;SDS011;52465;51.560;14.368;2023-05-07T03:57:50;7.40;;;6.80;;
65552;SDS011;52465;51.560;14.368;2023-05-07T04:00:16;7.45;;;6.78;;
65552;SDS011;52465;51.560;14.368;2023-05-07T04:02:42;7.70;;;6.93;;
65552;SDS011;52465;51.560;14.368;2023-05-07T04:05:07;8.25;;;6.95;;
65552;SDS011;52465;51.560;14.368;2023-05-07T04:07:33;7.82;;;7.05;;
65552;SDS011;52465;51.560;14.368;2023-05-07T04:10:01;7.13;;;6.53;;
65552;SDS011;52465;51.560;14.368;2023-05-07T04:12:28;7.45;;;6.75;;
65552;SDS011;52465;51.560;14.368;2023-05-07T04:14:54;7.55;;;6.95;;
65552;SDS011;52465;51.560;14.368;2023-05-07T04:17:19;7.78;;;7.07;;
65552;SDS011;52465;51.560;14.368;2023-05-07T04:19:45;7.25;;;6.70;;
65552;SDS011;52465;51.560;14.368;2023-05-07T04:22:11;7.97;;;7.28;;
65552;SDS011;52465;51.560;14.368;2023-05-07T04:27:21;7.50;;;6.80;;
65552;SDS011;52465;51.560;14.368;2023-05-07T04:29:46;7.60;;;6.90;;
65552;SDS011;52465;51.560;14.368;2023-05-07T04:32:12;7.47;;;6.80;;
65552;SDS011;52465;51.560;14.368;2023-05-07T04:34:38;7.80;;;7.10;;
65552;SDS011;52465;51.560;14.368;2023-05-07T04:37:03;7.28;;;6.68;;
65552;SDS011;52465;51.560;14.368;2023-05-07T04:39:29;7.85;;;7.20;;
65552;SDS011;52465;51.560;14.368;2023-05-07T04:41:55;7.57;;;6.80;;
65552;SDS011;52465;51.560;14.368;2023-05-07T04:44:20;7.53;;;6.93;;
65552;SDS011;52465;51.560;14.368;2023-05-07T04:46:46;7.18;;;6.68;;
65552;SDS011;52465;51.560;14.368;2023-05-07T04:49:11;7.53;;;6.93;;
65552;SDS011;52465;51.560;14.368;2023-05-07T04:51:36;7.15;;;6.53;;
65552;SDS011;52465;51.560;14.368;2023-05-07T04:54:07;7.80;;;7.20;;
65552;SDS011;52465;51.560;14.368;2023-05-07T04:56:35;7.72;;;7.13;;
65552;SDS011;52465;51.560;14.368;2023-05-07T04:59:01;7.60;;;6.90;;
65552;SDS011;52465;51.560;14.368;2023-05-07T05:01:26;7.75;;;6.95;;
65552;SDS011;52465;51.560;14.368;2023-05-07T05:03:51;7.68;;;6.97;;
65552;SDS011;52465;51.560;14.368;2023-05-07T05:06:17;7.80;;;7.10;;
65552;SDS011;52465;51.560;14.368;2023-05-07T05:08:42;7.90;;;7.20;;
65552;SDS011;52465;51.560;14.368;2023-05-07T05:11:08;7.30;;;6.70;;
65552;SDS011;52465;51.560;14.368;2023-05-07T05:13:33;7.88;;;7.20;;
65552;SDS011;52465;51.560;14.368;2023-05-07T05:15:59;8.55;;;7.18;;
65552;SDS011;52465;51.560;14.368;2023-05-07T05:18:24;7.57;;;6.88;;
65552;SDS011;52465;51.560;14.368;2023-05-07T05:20:51;7.25;;;6.57;;
65552;SDS011;52465;51.560;14.368;2023-05-07T05:23:17;7.22;;;6.65;;
65552;SDS011;52465;51.560;14.368;2023-05-07T05:25:42;7.55;;;6.85;;
65552;SDS011;52465;51.560;14.368;2023-05-07T05:28:07;7.40;;;6.80;;
65552;SDS011;52465;51.560;14.368;2023-05-07T05:30:33;7.88;;;7.13;;
65552;SDS011;52465;51.560;14.368;2023-05-07T05:32:58;7.72;;;7.03;;
65552;SDS011;52465;51.560;14.368;2023-05-07T05:35:24;7.60;;;6.90;;
65552;SDS011;52465;51.560;14.368;2023-05-07T05:37:49;6.88;;;6.28;;
65552;SDS011;52465;51.560;14.368;2023-05-07T05:40:15;7.03;;;6.43;;
65552;SDS011;52465;51.560;14.368;2023-05-07T05:42:40;7.13;;;6.53;;
65552;SDS011;52465;51.560;14.368;2023-05-07T05:45:06;6.88;;;6.38;;
65552;SDS011;52465;51.560;14.368;2023-05-07T05:47:32;7.50;;;6.90;;
65552;SDS011;52465;51.560;14.368;2023-05-07T05:49:57;7.32;;;6.82;;
65552;SDS011;52465;51.560;14.368;2023-05-07T05:52:23;7.53;;;6.95;;
65552;SDS011;52465;51.560;14.368;2023-05-07T05:54:48;6.88;;;6.32;;
65552;SDS011;52465;51.560;14.368;2023-05-07T05:57:14;7.65;;;7.05;;
65552;SDS011;52465;51.560;14.368;2023-05-07T05:59:39;7.85;;;7.18;;
65552;SDS011;52465;51.560;14.368;2023-05-07T06:02:05;7.35;;;6.75;;
65552;SDS011;52465;51.560;14.368;2023-05-07T06:04:31;7.70;;;7.03;;
65552;SDS011;52465;51.560;14.368;2023-05-07T06:06:57;7.53;;;6.82;;
65552;SDS011;52465;51.560;14.368;2023-05-07T06:09:22;7.15;;;6.63;;
65552;SDS011;52465;51.560;14.368;2023-05-07T06:11:48;7.45;;;6.85;;
65552;SDS011;52465;51.560;14.368;2023-05-07T06:14:13;7.13;;;6.50;;
65552;SDS011;52465;51.560;14.368;2023-05-07T06:16:38;7.45;;;6.85;;
65552;SDS011;52465;51.560;14.368;2023-05-07T06:19:04;7.65;;;6.95;;
65552;SDS011;52465;51.560;14.368;2023-05-07T06:21:30;7.10;;;6.60;;
65552;SDS011;52465;51.560;14.368;2023-05-07T06:23:55;6.90;;;6.32;;
65552;SDS011;52465;51.560;14.368;2023-05-07T06:26:23;7.20;;;6.57;;
65552;SDS011;52465;51.560;14.368;2023-05-07T06:28:49;7.65;;;7.03;;
65552;SDS011;52465;51.560;14.368;2023-05-07T06:31:15;7.75;;;7.10;;
65552;SDS011;52465;51.560;14.368;2023-05-07T06:33:42;7.75;;;7.05;;
65552;SDS011;52465;51.560;14.368;2023-05-07T06:36:13;6.72;;;6.05;;
65552;SDS011;52465;51.560;14.368;2023-05-07T06:38:39;7.60;;;6.90;;
65552;SDS011;52465;51.560;14.368;2023-05-07T06:41:05;6.90;;;6.30;;
65552;SDS011;52465;51.560;14.368;2023-05-07T06:43:31;7.82;;;7.10;;
65552;SDS011;52465;51.560;14.368;2023-05-07T06:45:57;7.32;;;6.65;;
65552;SDS011;52465;51.560;14.368;2023-05-07T06:48:22;6.82;;;6.32;;
65552;SDS011;52465;51.560;14.368;2023-05-07T06:50:47;7.38;;;6.78;;
65552;SDS011;52465;51.560;14.368;2023-05-07T06:53:13;7.85;;;7.20;;
65552;SDS011;52465;51.560;14.368;2023-05-07T06:55:38;7.47;;;6.80;;
65552;SDS011;52465;51.560;14.368;2023-05-07T06:58:04;6.93;;;6.43;;
65552;SDS011;52465;51.560;14.368;2023-05-07T07:00:31;8.30;;;7.50;;
65552;SDS011;52465;51.560;14.368;2023-05-07T07:02:56;7.53;;;6.82;;
65552;SDS011;52465;51.560;14.368;2023-05-07T07:05:22;8.20;;;7.43;;
65552;SDS011;52465;51.560;14.368;2023-05-07T07:07:47;7.32;;;6.72;;
65552;SDS011;52465;51.560;14.368;2023-05-07T07:10:19;7.38;;;6.78;;
65552;SDS011;52465;51.560;14.368;2023-05-07T07:12:45;7.38;;;6.80;;
65552;SDS011;52465;51.560;14.368;2023-05-07T07:15:11;8.10;;;7.30;;
65552;SDS011;52465;51.560;14.368;2023-05-07T07:17:38;7.45;;;6.78;;
65552;SDS011;52465;51.560;14.368;2023-05-07T07:20:06;7.50;;;6.90;;
65552;SDS011;52465;51.560;14.368;2023-05-07T07:22:32;7.47;;;6.88;;
65552;SDS011;52465;51.560;14.368;2023-05-07T07:25:00;7.50;;;6.70;;
65552;SDS011;52465;51.560;14.368;2023-05-07T07:27:25;7.78;;;7.00;;
65552;SDS011;52465;51.560;14.368;2023-05-07T07:29:51;7.68;;;7.00;;
65552;SDS011;52465;51.560;14.368;2023-05-07T07:32:17;7.43;;;6.70;;
65552;SDS011;52465;51.560;14.368;2023-05-07T07:34:42;7.38;;;6.78;;
65552;SDS011;52465;51.560;14.368;2023-05-07T07:37:08;7.32;;;6.72;;
65552;SDS011;52465;51.560;14.368;2023-05-07T07:41:54;7.75;;;7.05;;
65552;SDS011;52465;51.560;14.368;2023-05-07T07:44:19;8.05;;;7.43;;
65552;SDS011;52465;51.560;14.368;2023-05-07T07:46:45;7.55;;;6.93;;
65552;SDS011;52465;51.560;14.368;2023-05-07T07:49:10;7.65;;;6.95;;
65552;SDS011;52465;51.560;14.368;2023-05-07T07:51:36;8.02;;;7.22;;
65552;SDS011;52465;51.560;14.368;2023-05-07T07:54:01;7.72;;;7.03;;
65552;SDS011;52465;51.560;14.368;2023-05-07T07:56:27;8.30;;;7.60;;
65552;SDS011;52465;51.560;14.368;2023-05-07T07:58:53;7.78;;;7.07;;
65552;SDS011;52465;51.560;14.368;2023-05-07T08:01:18;7.90;;;7.20;;
65552;SDS011;52465;51.560;14.368;2023-05-07T08:03:43;7.10;;;6.53;;
65552;SDS011;52465;51.560;14.368;2023-05-07T08:06:09;7.45;;;6.75;;
65552;SDS011;52465;51.560;14.368;2023-05-07T08:08:35;8.07;;;7.28;;
65552;SDS011;52465;51.560;14.368;2023-05-07T08:11:04;8.02;;;7.05;;
65552;SDS011;52465;51.560;14.368;2023-05-07T08:13:30;8.00;;;7.30;;
65552;SDS011;52465;51.560;14.368;2023-05-07T08:15:56;8.25;;;7.45;;
65552;SDS011;52465;51.560;14.368;2023-05-07T08:18:25;8.55;;;7.25;;
65552;SDS011;52465;51.560;14.368;2023-05-07T08:20:53;8.35;;;7.55;;
65552;SDS011;52465;51.560;14.368;2023-05-07T08:23:19;7.82;;;7.05;;
65552;SDS011;52465;51.560;14.368;2023-05-07T08:25:45;7.13;;;6.53;;
65552;SDS011;52465;51.560;14.368;2023-05-07T08:28:10;7.97;;;7.20;;
65552;SDS011;52465;51.560;14.368;2023-05-07T08:30:36;7.93;;;7.22;;
65552;SDS011;52465;51.560;14.368;2023-05-07T08:33:01;7.60;;;7.00;;
65552;SDS011;52465;51.560;14.368;2023-05-07T08:35:27;7.72;;;7.03;;
65552;SDS011;52465;51.560;14.368;2023-05-07T08:37:53;7.65;;;7.00;;
65552;SDS011;52465;51.560;14.368;2023-05-07T08:40:19;8.48;;;7.68;;
65552;SDS011;52465;51.560;14.368;2023-05-07T08:42:45;8.20;;;7.40;;
65552;SDS011;52465;51.560;14.368;2023-05-07T08:45:14;7.60;;;7.00;;
65552;SDS011;52465;51.560;14.368;2023-05-07T08:47:44;7.28;;;6.68;;
65552;SDS011;52465;51.560;14.368;2023-05-07T08:50:12;7.53;;;6.93;;
65552;SDS011;52465;51.560;14.368;2023-05-07T08:52:38;8.05;;;7.25;;
65552;SDS011;52465;51.560;14.368;2023-05-07T08:55:04;7.97;;;7.18;;
65552;SDS011;52465;51.560;14.368;2023-05-07T08:57:34;7.72;;;6.95;;
65552;SDS011;52465;51.560;14.368;2023-05-07T09:00:00;7.90;;;7.10;;
65552;SDS011;52465;51.560;14.368;2023-05-07T09:02:26;7.95;;;7.28;;
65552;SDS011;52465;51.560;14.368;2023-05-07T09:04:52;7.43;;;6.75;;
65552;SDS011;52465;51.560;14.368;2023-05-07T09:07:18;8.15;;;7.35;;
65552;SDS011;52465;51.560;14.368;2023-05-07T09:09:47;8.43;;;7.65;;
65552;SDS011;52465;51.560;14.368;2023-05-07T09:12:18;7.68;;;7.07;;
65552;SDS011;52465;51.560;14.368;2023-05-07T09:14:45;7.82;;;7.00;;
65552;SDS011;52465;51.560;14.368;2023-05-07T09:17:11;8.15;;;7.40;;
65552;SDS011;52465;51.560;14.368;2023-05-07T09:19:36;8.70;;;7.90;;
65552;SDS011;52465;51.560;14.368;2023-05-07T09:22:02;7.90;;;7.20;;
65552;SDS011;52465;51.560;14.368;2023-05-07T09:24:29;7.80;;;7.10;;
65552;SDS011;52465;51.560;14.368;2023-05-07T09:26:59;8.15;;;7.35;;
65552;SDS011;52465;51.560;14.368;2023-05-07T09:29:31;7.50;;;6.82;;
65552;SDS011;52465;51.560;14.368;2023-05-07T09:32:03;7.80;;;7.15;;
65552;SDS011;52465;51.560;14.368;2023-05-07T09:34:33;7.68;;;6.97;;
65552;SDS011;52465;51.560;14.368;2023-05-07T09:36:59;7.55;;;6.85;;
65552;SDS011;52465;51.560;14.368;2023-05-07T09:39:25;7.70;;;7.10;;
65552;SDS011;52465;51.560;14.368;2023-05-07T09:41:51;8.00;;;7.30;;
65552;SDS011;52465;51.560;14.368;2023-05-07T09:44:22;8.07;;;7.38;;
65552;SDS011;52465;51.560;14.368;2023-05-07T09:46:50;7.47;;;6.82;;
65552;SDS011;52465;51.560;14.368;2023-05-07T09:49:23;7.65;;;7.00;;
65552;SDS011;52465;51.560;14.368;2023-05-07T09:51:50;7.93;;;7.32;;
65552;SDS011;52465;51.560;14.368;2023-05-07T09:54:17;7.38;;;6.80;;
65552;SDS011;52465;51.560;14.368;2023-05-07T09:56:46;7.88;;;7.18;;
65552;SDS011;52465;51.560;14.368;2023-05-07T09:59:15;7.50;;;6.80;;
65552;SDS011;52465;51.560;14.368;2023-05-07T10:01:42;8.02;;;7.32;;
65552;SDS011;52465;51.560;14.368;2023-05-07T10:04:09;7.63;;;6.93;;
65552;SDS011;52465;51.560;14.368;2023-05-07T10:06:35;7.22;;;6.63;;
65552;SDS011;52465;51.560;14.368;2023-05-07T10:09:03;7.75;;;6.95;;
65552;SDS011;52465;51.560;14.368;2023-05-07T10:11:31;7.45;;;6.78;;
65552;SDS011;52465;51.560;14.368;2023-05-07T10:13:57;7.07;;;6.57;;
65552;SDS011;52465;51.560;14.368;2023-05-07T10:16:23;7.35;;;6.65;;
65552;SDS011;52465;51.560;14.368;2023-05-07T10:18:50;7.53;;;6.82;;
65552;SDS011;52465;51.560;14.368;2023-05-07T10:23:49;7.45;;;6.75;;
65552;SDS011;52465;51.560;14.368;2023-05-07T10:26:15;7.75;;;6.95;;
65552;SDS011;52465;51.560;14.368;2023-05-07T10:28:44;7.53;;;6.82;;
65552;SDS011;52465;51.560;14.368;2023-05-07T10:34:11;7.25;;;6.65;;
65552;SDS011;52465;51.560;14.368;2023-05-07T10:37:09;6.97;;;6.47;;
65552;SDS011;52465;51.560;14.368;2023-05-07T10:39:36;7.60;;;6.90;;
65552;SDS011;52465;51.560;14.368;2023-05-07T10:42:08;7.30;;;6.70;;
65552;SDS011;52465;51.560;14.368;2023-05-07T10:44:38;7.20;;;6.53;;
65552;SDS011;52465;51.560;14.368;2023-05-07T10:47:07;7.50;;;6.90;;
65552;SDS011;52465;51.560;14.368;2023-05-07T10:52:29;9.35;;;6.80;;
65552;SDS011;52465;51.560;14.368;2023-05-07T10:57:56;7.07;;;6.57;;
65552;SDS011;52465;51.560;14.368;2023-05-07T11:00:57;7.75;;;7.15;;
65552;SDS011;52465;51.560;14.368;2023-05-07T11:03:24;8.25;;;7.47;;
65552;SDS011;52465;51.560;14.368;2023-05-07T11:06:08;8.13;;;7.32;;
65552;SDS011;52465;51.560;14.368;2023-05-07T11:08:53;7.22;;;6.63;;
65552;SDS011;52465;51.560;14.368;2023-05-07T11:17:02;7.70;;;7.05;;
65552;SDS011;52465;51.560;14.368;2023-05-07T11:24:56;6.90;;;6.38;;
65552;SDS011;52465;51.560;14.368;2023-05-07T11:27:27;7.97;;;7.28;;
65552;SDS011;52465;51.560;14.368;2023-05-07T11:29:52;7.90;;;7.10;;
65552;SDS011;52465;51.560;14.368;2023-05-07T11:32:28;7.53;;;6.93;;
65552;SDS011;52465;51.560;14.368;2023-05-07T11:34:55;7.20;;;6.60;;
65552;SDS011;52465;51.560;14.368;2023-05-07T11:37:24;7.57;;;6.97;;
65552;SDS011;52465;51.560;14.368;2023-05-07T11:39:51;7.20;;;6.60;;
65552;SDS011;52465;51.560;14.368;2023-05-07T11:42:32;11.85;;;6.75;;
65552;SDS011;52465;51.560;14.368;2023-05-07T11:47:31;7.75;;;6.85;;
65552;SDS011;52465;51.560;14.368;2023-05-07T11:49:57;7.55;;;6.82;;
65552;SDS011;52465;51.560;14.368;2023-05-07T11:52:31;7.63;;;6.97;;
65552;SDS011;52465;51.560;14.368;2023-05-07T11:54:58;8.35;;;7.55;;
65552;SDS011;52465;51.560;14.368;2023-05-07T11:57:26;7.78;;;7.18;;
65552;SDS011;52465;51.560;14.368;2023-05-07T11:59:55;7.60;;;6.90;;
65552;SDS011;52465;51.560;14.368;2023-05-07T12:02:22;7.85;;;7.15;;
65552;SDS011;52465;51.560;14.368;2023-05-07T12:04:50;8.05;;;7.35;;
65552;SDS011;52465;51.560;14.368;2023-05-07T12:07:18;8.18;;;7.40;;
65552;SDS011;52465;51.560;14.368;2023-05-07T12:09:51;7.70;;;7.00;;
65552;SDS011;52465;51.560;14.368;2023-05-07T12:12:17;8.15;;;7.35;;
65552;SDS011;52465;51.560;14.368;2023-05-07T12:19:53;8.60;;;7.75;;
65552;SDS011;52465;51.560;14.368;2023-05-07T12:22:19;8.30;;;7.60;;
65552;SDS011;52465;51.560;14.368;2023-05-07T12:24:47;8.05;;;7.25;;
65552;SDS011;52465;51.560;14.368;2023-05-07T12:27:14;8.55;;;7.85;;
65552;SDS011;52465;51.560;14.368;2023-05-07T12:29:43;8.07;;;7.30;;
65552;SDS011;52465;51.560;14.368;2023-05-07T12:32:14;8.60;;;7.88;;
65552;SDS011;52465;51.560;14.368;2023-05-07T12:34:44;8.65;;;7.90;;
65552;SDS011;52465;51.560;14.368;2023-05-07T12:37:10;8.88;;;8.07;;
65552;SDS011;52465;51.560;14.368;2023-05-07T12:39:38;8.75;;;7.97;;
65552;SDS011;52465;51.560;14.368;2023-05-07T12:42:09;8.75;;;7.85;;
65552;SDS011;52465;51.560;14.368;2023-05-07T12:44:40;7.95;;;7.25;;
65552;SDS011;52465;51.560;14.368;2023-05-07T12:47:07;8.10;;;7.30;;
65552;SDS011;52465;51.560;14.368;2023-05-07T12:49:34;8.05;;;7.35;;
65552;SDS011;52465;51.560;14.368;2023-05-07T12:52:02;8.57;;;7.75;;
65552;SDS011;52465;51.560;14.368;2023-05-07T12:54:29;8.30;;;7.60;;
65552;SDS011;52465;51.560;14.368;2023-05-07T12:57:02;8.05;;;7.35;;
65552;SDS011;52465;51.560;14.368;2023-05-07T12:59:40;8.38;;;7.55;;
65552;SDS011;52465;51.560;14.368;2023-05-07T13:02:06;7.95;;;7.28;;
65552;SDS011;52465;51.560;14.368;2023-05-07T13:04:32;7.85;;;7.07;;
65552;SDS011;52465;51.560;14.368;2023-05-07T13:06:59;8.25;;;7.53;;
65552;SDS011;52465;51.560;14.368;2023-05-07T13:09:24;8.27;;;7.57;;
65552;SDS011;52465;51.560;14.368;2023-05-07T13:11:50;8.30;;;7.60;;
65552;SDS011;52465;51.560;14.368;2023-05-07T13:14:15;7.90;;;7.15;;
65552;SDS011;52465;51.560;14.368;2023-05-07T13:16:41;8.10;;;7.40;;
65552;SDS011;52465;51.560;14.368;2023-05-07T13:19:06;8.27;;;7.57;;
65552;SDS011;52465;51.560;14.368;2023-05-07T13:21:32;8.50;;;7.80;;
65552;SDS011;52465;51.560;14.368;2023-05-07T13:23:58;8.05;;;7.35;;
65552;SDS011;52465;51.560;14.368;2023-05-07T13:26:23;7.75;;;7.15;;
65552;SDS011;52465;51.560;14.368;2023-05-07T13:28:49;7.97;;;7.38;;
65552;SDS011;52465;51.560;14.368;2023-05-07T13:31:16;7.80;;;7.10;;
65552;SDS011;52465;51.560;14.368;2023-05-07T13:33:42;7.82;;;7.10;;
65552;SDS011;52465;51.560;14.368;2023-05-07T13:36:07;8.00;;;7.30;;
65552;SDS011;52465;51.560;14.368;2023-05-07T13:38:33;7.95;;;7.25;;
65552;SDS011;52465;51.560;14.368;2023-05-07T13:40:58;8.02;;;7.35;;
65552;SDS011;52465;51.560;14.368;2023-05-07T13:43:24;8.20;;;7.50;;
65552;SDS011;52465;51.560;14.368;2023-05-07T13:45:50;9.27;;;7.63;;
65552;SDS011;52465;51.560;14.368;2023-05-07T13:48:15;7.90;;;7.20;;
65552;SDS011;52465;51.560;14.368;2023-05-07T13:50:41;8.02;;;7.30;;
65552;SDS011;52465;51.560;14.368;2023-05-07T13:53:07;7.75;;;7.10;;
65552;SDS011;52465;51.560;14.368;2023-05-07T13:55:33;7.70;;;7.00;;
65552;SDS011;52465;51.560;14.368;2023-05-07T13:58:02;7.68;;;7.07;;
65552;SDS011;52465;51.560;14.368;2023-05-07T14:00:28;8.00;;;7.30;;
65552;SDS011;52465;51.560;14.368;2023-05-07T14:02:54;7.80;;;7.15;;
65552;SDS011;52465;51.560;14.368;2023-05-07T14:05:21;7.22;;;6.72;;
65552;SDS011;52465;51.560;14.368;2023-05-07T14:07:52;7.93;;;7.22;;
65552;SDS011;52465;51.560;14.368;2023-05-07T14:10:18;8.15;;;7.45;;
65552;SDS011;52465;51.560;14.368;2023-05-07T14:12:46;7.63;;;6.93;;
65552;SDS011;52465;51.560;14.368;2023-05-07T14:15:12;7.97;;;7.28;;
65552;SDS011;52465;51.560;14.368;2023-05-07T14:17:37;8.00;;;7.30;;
65552;SDS011;52465;51.560;14.368;2023-05-07T14:20:03;8.05;;;7.35;;
65552;SDS011;52465;51.560;14.368;2023-05-07T14:22:28;13.18;;;7.25;;
65552;SDS011;52465;51.560;14.368;2023-05-07T14:24:54;9.98;;;6.63;;
65552;SDS011;52465;51.560;14.368;2023-05-07T14:27:19;11.07;;;7.97;;
65552;SDS011;52465;51.560;14.368;2023-05-07T14:30:03;7.88;;;7.18;;
65552;SDS011;52465;51.560;14.368;2023-05-07T14:32:48;7.70;;;6.93;;
65552;SDS011;52465;51.560;14.368;2023-05-07T14:35:13;10.77;;;7.05;;
65552;SDS011;52465;51.560;14.368;2023-05-07T14:37:39;7.68;;;6.85;;
65552;SDS011;52465;51.560;14.368;2023-05-07T14:40:04;10.30;;;7.25;;
65552;SDS011;52465;51.560;14.368;2023-05-07T14:42:31;9.88;;;7.05;;
65552;SDS011;52465;51.560;14.368;2023-05-07T14:44:56;14.65;;;7.72;;
65552;SDS011;52465;51.560;14.368;2023-05-07T14:47:21;9.75;;;7.05;;
65552;SDS011;52465;51.560;14.368;2023-05-07T14:49:47;9.38;;;7.15;;
65552;SDS011;52465;51.560;14.368;2023-05-07T14:52:12;12.75;;;7.38;;
65552;SDS011;52465;51.560;14.368;2023-05-07T14:54:37;8.30;;;7.50;;
65552;SDS011;52465;51.560;14.368;2023-05-07T14:57:04;7.72;;;7.10;;
65552;SDS011;52465;51.560;14.368;2023-05-07T14:59:30;12.88;;;7.93;;
65552;SDS011;52465;51.560;14.368;2023-05-07T15:01:57;12.52;;;7.55;;
65552;SDS011;52465;51.560;14.368;2023-05-07T15:04:23;11.32;;;7.70;;
65552;SDS011;52465;51.560;14.368;2023-05-07T15:06:49;12.57;;;7.25;;
65552;SDS011;52465;51.560;14.368;2023-05-07T15:09:14;9.27;;;7.47;;
65552;SDS011;52465;51.560;14.368;2023-05-07T15:11:40;7.93;;;7.22;;